createdAt,value
2023-02-18T00:01:11.909Z,10.95
2023-02-18T00:03:42.204Z,12.00
2023-02-18T00:06:16.871Z,12.82
2023-02-18T00:08:47.216Z,13.25
2023-02-18T00:11:17.822Z,15.00
2023-02-18T00:13:54.649Z,15.60
2023-02-18T00:16:24.978Z,15.35
2023-02-18T00:18:57.501Z,14.63
2023-02-18T00:21:27.138Z,14.10
2023-02-18T00:23:57.106Z,13.57
2023-02-18T00:26:26.726Z,13.48
2023-02-18T00:28:57.253Z,11.85
2023-02-18T00:31:29.834Z,11.80
2023-02-18T00:34:01.630Z,11.60
2023-02-18T00:36:31.220Z,11.20
2023-02-18T00:39:04.029Z,11.70
2023-02-18T00:41:34.331Z,11.68
2023-02-18T00:44:05.621Z,12.20
2023-02-18T00:46:37.055Z,12.05
2023-02-18T00:49:07.452Z,11.75
2023-02-18T00:51:38.326Z,11.80
2023-02-18T00:54:07.580Z,11.50
2023-02-18T00:56:37.150Z,11.98
2023-02-18T00:59:07.921Z,12.00
2023-02-18T01:01:37.123Z,11.68
2023-02-18T01:04:06.689Z,12.40
2023-02-18T01:06:36.030Z,13.55
2023-02-18T01:09:05.823Z,14.48
2023-02-18T01:11:35.143Z,12.40
2023-02-18T01:14:04.555Z,13.88
2023-02-18T01:16:35.073Z,17.60
2023-02-18T01:19:04.381Z,16.52
2023-02-18T01:21:33.524Z,15.23
2023-02-18T01:24:02.934Z,14.52
2023-02-18T01:26:32.127Z,14.18
2023-02-18T01:29:01.197Z,14.20
2023-02-18T01:31:30.474Z,11.60
2023-02-18T01:34:02.684Z,11.95
2023-02-18T01:36:31.792Z,12.18
2023-02-18T01:39:00.850Z,12.82
2023-02-18T01:41:30.182Z,12.73
2023-02-18T01:44:17.227Z,13.98
2023-02-18T01:46:49.250Z,14.13
2023-02-18T01:49:25.412Z,14.20
2023-02-18T01:52:01.276Z,14.73
2023-02-18T01:54:36.725Z,14.77
2023-02-18T01:57:08.765Z,14.05
2023-02-18T01:59:42.810Z,13.65
2023-02-18T02:02:16.574Z,14.05
2023-02-18T02:04:47.834Z,13.32
2023-02-18T02:07:19.301Z,14.35
2023-02-18T02:09:51.372Z,13.98
2023-02-18T02:12:41.611Z,13.50
2023-02-18T02:15:30.593Z,12.82
2023-02-18T02:18:23.479Z,13.57
2023-02-18T02:21:41.573Z,13.07
2023-02-18T02:24:37.691Z,12.77
2023-02-18T02:27:27.444Z,14.40
2023-02-18T02:30:49.960Z,13.05
2023-02-18T02:34:06.642Z,12.88
2023-02-18T02:36:47.044Z,12.55
2023-02-18T02:39:24.516Z,11.55
2023-02-18T02:42:07.970Z,11.70
2023-02-18T02:44:45.912Z,12.43
2023-02-18T02:47:39.427Z,11.60
2023-02-18T02:50:15.020Z,12.00
2023-02-18T02:52:51.597Z,12.88
2023-02-18T02:55:22.791Z,11.95
2023-02-18T02:57:57.119Z,13.02
2023-02-18T03:00:48.718Z,11.05
2023-02-18T03:03:40.211Z,10.98
2023-02-18T03:06:37.028Z,9.63
2023-02-18T03:09:15.249Z,9.70
2023-02-18T03:11:52.845Z,10.35
2023-02-18T03:14:31.256Z,10.98
2023-02-18T03:17:05.008Z,10.68
2023-02-18T03:19:39.049Z,10.88
2023-02-18T03:22:14.698Z,11.25
2023-02-18T03:24:48.171Z,10.73
2023-02-18T03:27:22.836Z,11.05
2023-02-18T03:29:59.128Z,10.85
2023-02-18T03:32:30.592Z,10.52
2023-02-18T03:35:09.012Z,11.02
2023-02-18T03:37:43.367Z,11.60
2023-02-18T03:40:15.127Z,10.98
2023-02-18T03:42:44.209Z,11.63
2023-02-18T03:45:13.824Z,10.35
2023-02-18T03:47:43.998Z,10.23
2023-02-18T03:50:13.102Z,11.63
2023-02-18T03:52:42.164Z,11.35
2023-02-18T03:55:13.143Z,11.52
2023-02-18T03:57:42.295Z,11.70
2023-02-18T04:00:12.699Z,10.95
2023-02-18T04:02:44.737Z,11.75
2023-02-18T04:05:14.308Z,11.48
2023-02-18T04:07:43.440Z,11.20
2023-02-18T04:10:14.193Z,11.02
2023-02-18T04:12:43.309Z,10.52
2023-02-18T04:15:13.890Z,10.38
2023-02-18T04:17:43.041Z,10.60
2023-02-18T04:20:13.391Z,10.77
2023-02-18T04:22:42.517Z,10.82
2023-02-18T04:25:13.068Z,9.82
2023-02-18T04:27:42.209Z,10.25
2023-02-18T04:30:12.481Z,10.20
2023-02-18T04:32:41.927Z,9.52
2023-02-18T04:35:11.002Z,10.15
2023-02-18T04:37:40.058Z,10.32
2023-02-18T04:40:10.830Z,9.40
2023-02-18T04:42:41.364Z,9.35
2023-02-18T04:45:11.012Z,10.35
2023-02-18T04:47:40.203Z,10.10
2023-02-18T04:50:10.980Z,9.93
2023-02-18T04:52:40.069Z,9.90
2023-02-18T04:55:09.697Z,9.85
2023-02-18T04:57:40.206Z,9.10
2023-02-18T05:00:14.513Z,9.95
2023-02-18T05:02:43.794Z,9.35
2023-02-18T05:05:13.739Z,10.27
2023-02-18T05:07:43.491Z,10.05
2023-02-18T05:10:16.333Z,13.23
2023-02-18T05:12:46.840Z,9.60
2023-02-18T05:15:15.903Z,10.32
2023-02-18T05:17:45.029Z,8.93
2023-02-18T05:20:14.927Z,10.88
2023-02-18T05:22:44.257Z,10.02
2023-02-18T05:25:13.411Z,9.27
2023-02-18T05:27:42.629Z,8.82
2023-02-18T05:30:14.064Z,9.57
2023-02-18T05:32:43.323Z,9.60
2023-02-18T05:35:13.641Z,9.02
2023-02-18T05:37:42.942Z,8.60
2023-02-18T05:40:13.306Z,9.45
2023-02-18T05:42:42.385Z,10.27
2023-02-18T05:45:12.986Z,9.30
2023-02-18T05:47:42.085Z,8.30
2023-02-18T05:50:11.860Z,9.27
2023-02-18T05:52:40.989Z,11.50
2023-02-18T05:55:10.159Z,9.80
2023-02-18T05:57:39.301Z,9.55
2023-02-18T06:00:10.473Z,9.43
2023-02-18T06:02:41.165Z,9.43
2023-02-18T06:05:11.356Z,9.82
2023-02-18T06:07:40.916Z,10.35
2023-02-18T06:10:12.402Z,10.35
2023-02-18T06:12:42.256Z,9.80
2023-02-18T06:15:12.474Z,9.65
2023-02-18T06:17:43.565Z,11.05
2023-02-18T06:20:14.429Z,9.00
2023-02-18T06:22:44.351Z,8.80
2023-02-18T06:25:14.254Z,9.02
2023-02-18T06:27:46.821Z,9.45
2023-02-18T06:30:17.406Z,9.50
2023-02-18T06:32:48.856Z,9.55
2023-02-18T06:35:18.958Z,9.07
2023-02-18T06:37:49.145Z,8.93
2023-02-18T06:40:19.891Z,8.10
2023-02-18T06:42:54.065Z,8.77
2023-02-18T06:45:24.056Z,10.38
2023-02-18T06:47:55.477Z,11.93
2023-02-18T06:50:25.187Z,12.00
2023-02-18T06:52:55.278Z,12.05
2023-02-18T06:55:25.116Z,11.88
2023-02-18T06:57:55.059Z,10.50
2023-02-18T07:00:24.963Z,10.55
2023-02-18T07:02:56.554Z,9.70
2023-02-18T07:05:26.406Z,9.77
2023-02-18T07:07:56.382Z,9.40
2023-02-18T07:10:26.933Z,9.18
2023-02-18T07:12:56.647Z,10.20
2023-02-18T07:15:28.189Z,10.07
2023-02-18T07:18:00.551Z,10.35
2023-02-18T07:20:30.549Z,9.88
2023-02-18T07:23:00.545Z,9.93
2023-02-18T07:25:30.473Z,8.25
2023-02-18T07:28:00.536Z,8.73
2023-02-18T07:30:32.752Z,9.10
2023-02-18T07:33:04.598Z,8.77
2023-02-18T07:35:34.672Z,9.25
2023-02-18T07:38:04.850Z,10.40
2023-02-18T07:40:36.019Z,9.15
2023-02-18T07:43:05.803Z,10.55
2023-02-18T07:45:38.408Z,9.27
2023-02-18T07:48:10.051Z,10.10
2023-02-18T07:50:42.012Z,9.32
2023-02-18T07:53:14.362Z,9.02
2023-02-18T07:55:51.010Z,9.10
2023-02-18T07:58:22.888Z,10.07
2023-02-18T08:01:06.289Z,9.55
2023-02-18T08:03:37.814Z,9.32
2023-02-18T08:46:08.935Z,8.77
2023-02-18T08:48:45.064Z,8.52
2023-02-18T08:51:17.315Z,14.57
2023-02-18T08:53:47.286Z,9.60
2023-02-18T08:56:17.256Z,9.68
2023-02-18T08:58:46.491Z,10.20
2023-02-18T09:01:16.914Z,8.98
2023-02-18T09:03:46.101Z,8.82
2023-02-18T09:06:15.122Z,8.60
2023-02-18T09:08:44.170Z,9.40
2023-02-18T09:11:13.551Z,9.20
2023-02-18T09:13:42.893Z,9.48
2023-02-18T09:16:15.209Z,9.15
2023-02-18T09:18:46.385Z,8.38
2023-02-18T09:21:20.748Z,9.15
2023-02-18T09:23:52.028Z,8.93
2023-02-18T09:26:25.027Z,11.00
2023-02-18T09:28:57.159Z,12.30
2023-02-18T09:31:28.208Z,11.77
2023-02-18T09:34:01.928Z,15.20
2023-02-18T09:36:31.705Z,11.23
2023-02-18T09:39:01.683Z,12.55
2023-02-18T09:41:39.645Z,12.73
2023-02-18T09:44:17.262Z,13.73
2023-02-18T09:46:53.303Z,14.73
2023-02-18T09:49:28.142Z,14.85
2023-02-18T09:52:02.208Z,13.77
2023-02-18T09:54:31.245Z,14.43
2023-02-18T09:57:01.002Z,13.55
2023-02-18T09:59:32.143Z,11.82
2023-02-18T10:02:03.228Z,11.63
2023-02-18T10:04:42.851Z,12.50
2023-02-18T10:07:23.094Z,13.15
2023-02-18T10:09:55.309Z,12.43
2023-02-18T10:12:27.407Z,12.80
2023-02-18T10:14:59.985Z,12.18
2023-02-18T10:17:34.195Z,12.35
2023-02-18T10:20:07.984Z,15.48
2023-02-18T10:22:39.995Z,13.90
2023-02-18T10:25:10.460Z,15.35
2023-02-18T10:27:42.135Z,17.35
2023-02-18T10:30:25.552Z,16.88
2023-02-18T10:33:02.831Z,15.38
2023-02-18T10:35:42.078Z,12.73
2023-02-18T10:38:19.830Z,12.27
2023-02-18T10:41:02.047Z,10.45
2023-02-18T10:43:43.880Z,9.40
2023-02-18T10:46:23.993Z,10.23
2023-02-18T10:49:11.840Z,8.70
2023-02-18T10:51:49.093Z,8.95
2023-02-18T10:56:52.338Z,8.80
2023-02-18T10:59:23.585Z,9.20
2023-02-18T11:01:58.250Z,9.45
2023-02-18T11:04:37.967Z,8.85
2023-02-18T11:07:16.754Z,8.98
2023-02-18T11:09:51.329Z,8.82
2023-02-18T11:12:24.835Z,9.27
2023-02-18T11:15:17.538Z,9.63
2023-02-18T11:17:48.966Z,9.20
2023-02-18T11:20:33.948Z,8.80
2023-02-18T11:23:20.754Z,8.20
2023-02-18T11:26:05.351Z,9.13
2023-02-18T11:28:45.544Z,9.32
2023-02-18T11:31:24.126Z,9.30
2023-02-18T11:33:56.828Z,9.15
2023-02-18T11:36:30.564Z,8.82
2023-02-18T11:39:06.362Z,8.38
2023-02-18T11:41:39.863Z,8.90
2023-02-18T11:44:23.672Z,9.63
2023-02-18T11:47:03.758Z,9.10
2023-02-18T11:49:35.239Z,9.15
2023-02-18T11:52:19.397Z,9.13
2023-02-18T11:55:04.786Z,8.27
2023-02-18T11:57:38.942Z,7.88
2023-02-18T12:00:23.163Z,8.60
2023-02-18T12:02:57.699Z,7.95
2023-02-18T12:05:35.135Z,8.30
2023-02-18T12:08:11.681Z,9.20
2023-02-18T12:10:47.923Z,7.87
2023-02-18T12:13:26.953Z,8.48
2023-02-18T12:16:10.439Z,7.97
2023-02-18T12:19:15.811Z,7.95
2023-02-18T12:21:59.851Z,8.45
2023-02-18T12:24:56.098Z,7.38
2023-02-18T12:27:35.968Z,9.43
2023-02-18T12:30:39.053Z,8.77
2023-02-18T12:33:21.003Z,8.68
2023-02-18T12:36:04.184Z,8.82
2023-02-18T12:38:55.778Z,10.05
2023-02-18T12:41:58.515Z,9.07
2023-02-18T12:44:45.195Z,9.65
2023-02-18T12:47:51.502Z,10.20
2023-02-18T12:50:53.025Z,10.63
2023-02-18T12:53:50.234Z,11.43
2023-02-18T12:56:53.537Z,12.93
2023-02-18T12:59:53.603Z,12.10
2023-02-18T13:02:48.602Z,13.55
2023-02-18T13:05:32.250Z,10.23
2023-02-18T13:08:22.541Z,9.82
2023-02-18T13:11:14.394Z,9.00
2023-02-18T13:13:51.621Z,9.98
2023-02-18T13:16:22.950Z,9.30
2023-02-18T13:19:03.722Z,9.48
2023-02-18T13:21:33.131Z,8.60
2023-02-18T13:24:06.037Z,9.88
2023-02-18T13:26:36.425Z,9.98
2023-02-18T13:29:24.008Z,10.48
2023-02-18T13:32:10.984Z,12.15
2023-02-18T13:34:48.007Z,11.80
2023-02-18T13:37:26.927Z,11.20
2023-02-18T13:39:58.555Z,11.55
2023-02-18T13:42:37.047Z,11.98
2023-02-18T13:45:29.109Z,11.23
2023-02-18T13:48:01.239Z,12.30
2023-02-18T13:50:40.316Z,14.05
2023-02-18T13:53:25.616Z,13.70
2023-02-18T13:55:59.414Z,12.80
2023-02-18T13:58:37.248Z,12.90
2023-02-18T14:01:13.066Z,12.70
2023-02-18T14:03:57.877Z,14.25
2023-02-18T14:06:31.518Z,13.73
2023-02-18T14:09:36.361Z,15.07
2023-02-18T14:12:28.434Z,15.25
2023-02-18T14:15:00.721Z,15.70
2023-02-18T14:17:50.234Z,17.83
2023-02-18T14:20:51.505Z,18.08
2023-02-18T14:23:59.322Z,18.90
2023-02-18T14:26:34.913Z,18.55
2023-02-18T14:29:12.116Z,18.45
2023-02-18T14:31:59.006Z,19.38
2023-02-18T14:35:10.743Z,20.43
2023-02-18T14:38:25.462Z,21.25
2023-02-18T14:41:27.301Z,22.05
2023-02-18T14:44:20.872Z,22.73
2023-02-18T14:47:12.435Z,22.02
2023-02-18T14:49:47.162Z,22.30
2023-02-18T14:52:32.157Z,22.25
2023-02-18T14:55:06.259Z,21.92
2023-02-18T14:57:41.307Z,22.52
2023-02-18T15:00:18.783Z,23.38
2023-02-18T15:02:51.572Z,23.25
2023-02-18T15:05:24.097Z,23.55
2023-02-18T15:08:01.063Z,22.83
2023-02-18T15:10:40.736Z,23.25
2023-02-18T15:13:18.164Z,22.80
2023-02-18T15:15:52.028Z,23.38
2023-02-18T15:18:31.328Z,23.60
2023-02-18T15:21:03.364Z,23.70
2023-02-18T15:23:38.278Z,25.05
2023-02-18T15:26:14.178Z,23.70
2023-02-18T15:28:54.695Z,24.52
2023-02-18T15:31:28.223Z,25.88
2023-02-18T15:33:59.205Z,26.30
2023-02-18T15:36:28.440Z,24.98
2023-02-18T15:38:58.431Z,24.00
2023-02-18T15:41:38.220Z,25.70
2023-02-18T15:44:09.332Z,26.30
2023-02-18T15:46:38.443Z,23.80
2023-02-18T15:49:09.466Z,24.60
2023-02-18T15:51:38.596Z,22.85
2023-02-18T15:54:07.673Z,24.45
2023-02-18T15:56:45.402Z,25.05
2023-02-18T15:59:21.572Z,24.52
2023-02-18T16:01:52.679Z,24.73
2023-02-18T16:04:22.732Z,25.08
2023-02-18T16:06:54.014Z,23.98
2023-02-18T16:09:27.318Z,25.92
2023-02-18T16:12:03.425Z,26.75
2023-02-18T16:14:35.342Z,24.27
2023-02-18T16:17:17.047Z,25.77
2023-02-18T16:20:04.067Z,24.42
2023-02-18T16:25:18.723Z,27.05
2023-02-18T16:27:55.061Z,26.17
2023-02-18T16:30:26.233Z,29.88
2023-02-18T16:32:55.366Z,28.83
2023-02-18T16:35:25.606Z,28.80
2023-02-18T16:37:57.771Z,29.25
2023-02-18T16:40:31.258Z,28.17
2023-02-18T16:43:13.180Z,28.35
2023-02-18T16:45:44.485Z,30.77
2023-02-18T16:48:20.693Z,30.83
2023-02-18T16:50:52.749Z,31.08
2023-02-18T16:53:22.148Z,30.75
2023-02-18T16:55:52.178Z,30.42
2023-02-18T16:58:24.554Z,30.27
2023-02-18T17:00:53.765Z,29.95
2023-02-18T17:03:23.117Z,29.98
2023-02-18T17:05:54.697Z,32.00
2023-02-18T17:08:28.923Z,31.77
2023-02-18T17:10:59.631Z,30.83
2023-02-18T17:13:31.656Z,31.60
2023-02-18T17:16:03.662Z,32.35
2023-02-18T17:18:33.317Z,32.28
2023-02-18T17:21:03.599Z,31.05
2023-02-18T17:23:32.539Z,32.40
2023-02-18T17:26:01.490Z,32.63
2023-02-18T17:28:31.994Z,32.22
2023-02-18T17:31:01.034Z,35.50
2023-02-18T17:33:30.026Z,37.63
2023-02-18T17:36:01.348Z,33.47
2023-02-18T17:38:30.339Z,32.28
2023-02-18T17:40:59.260Z,33.17
2023-02-18T17:43:28.277Z,30.33
2023-02-18T17:46:00.405Z,29.33
2023-02-18T17:48:29.828Z,28.20
2023-02-18T17:50:59.412Z,33.25
2023-02-18T17:53:29.631Z,32.42
2023-02-18T17:55:58.540Z,30.10
2023-02-18T17:58:27.719Z,33.78
2023-02-18T18:00:59.385Z,29.08
2023-02-18T18:03:28.516Z,31.77
2023-02-18T18:05:57.715Z,34.20
2023-02-18T18:08:26.691Z,33.75
2023-02-18T18:10:58.782Z,29.63
2023-02-18T18:13:34.669Z,32.17
2023-02-18T18:16:05.969Z,32.17
2023-02-18T18:18:36.941Z,28.88
2023-02-18T18:21:06.968Z,32.83
2023-02-18T18:23:36.099Z,33.42
2023-02-18T18:26:05.451Z,30.67
2023-02-18T18:28:36.128Z,27.90
2023-02-18T18:31:08.097Z,29.58
2023-02-18T18:33:37.350Z,34.60
2023-02-18T18:36:10.314Z,31.67
2023-02-18T18:38:40.398Z,31.73
2023-02-18T18:41:15.330Z,35.53
2023-02-18T18:43:44.321Z,32.20
2023-02-18T18:46:14.959Z,31.17
2023-02-18T18:48:43.986Z,32.88
2023-02-18T18:51:17.161Z,29.05
2023-02-18T18:53:46.259Z,29.08
2023-02-18T18:56:15.413Z,27.02
2023-02-18T18:58:44.532Z,28.30
2023-02-18T19:01:18.886Z,31.38
2023-02-18T19:03:48.538Z,31.17
2023-02-18T19:06:18.360Z,30.02
2023-02-18T19:08:47.944Z,29.23
2023-02-18T19:11:18.337Z,34.05
2023-02-18T19:13:47.437Z,30.73
2023-02-18T19:16:22.333Z,29.70
2023-02-18T19:18:51.720Z,30.48
2023-02-18T19:21:21.043Z,34.00
2023-02-18T19:23:50.443Z,31.92
2023-02-18T19:26:20.587Z,33.17
2023-02-18T19:28:49.668Z,31.05
2023-02-18T19:31:24.011Z,34.15
2023-02-18T19:33:54.352Z,29.80
2023-02-18T19:36:23.467Z,29.05
2023-02-18T19:38:52.778Z,28.08
2023-02-18T19:41:21.771Z,31.30
2023-02-18T19:43:50.769Z,30.70
2023-02-18T19:46:21.249Z,30.50
2023-02-18T19:48:52.620Z,33.33
2023-02-18T19:51:23.170Z,32.70
2023-02-18T19:53:52.825Z,28.98
2023-02-18T19:56:21.788Z,31.17
2023-02-18T19:58:50.772Z,30.15
2023-02-18T20:01:28.709Z,33.50
2023-02-18T20:03:57.674Z,37.40
2023-02-18T20:06:26.631Z,36.33
2023-02-18T20:08:55.584Z,33.53
2023-02-18T20:11:24.706Z,32.45
2023-02-18T20:13:53.796Z,32.78
2023-02-18T20:16:24.153Z,30.55
2023-02-18T20:18:54.034Z,29.60
2023-02-18T20:21:26.300Z,28.02
2023-02-18T20:23:56.069Z,28.73
2023-02-18T20:26:25.612Z,28.73
2023-02-18T20:28:54.509Z,28.25
2023-02-18T20:31:24.964Z,28.08
2023-02-18T20:33:57.259Z,30.95
2023-02-18T20:36:27.855Z,31.27
2023-02-18T20:39:02.452Z,33.65
2023-02-18T20:41:37.114Z,29.98
2023-02-18T20:44:06.694Z,29.30
2023-02-18T20:46:38.135Z,29.15
2023-02-18T20:49:09.058Z,29.58
2023-02-18T20:51:38.590Z,30.92
2023-02-18T20:54:10.230Z,31.17
2023-02-18T20:56:40.746Z,28.65
2023-02-18T20:59:12.686Z,32.38
2023-02-18T21:01:43.868Z,30.73
2023-02-18T21:04:13.818Z,29.63
2023-02-18T21:06:45.404Z,29.70
2023-02-18T21:09:15.661Z,30.67
2023-02-18T21:11:45.597Z,28.05
2023-02-18T21:14:14.610Z,26.88
2023-02-18T21:30:20.968Z,26.65
2023-02-18T21:32:50.030Z,28.65
2023-02-18T21:35:19.185Z,27.83
2023-02-18T21:37:48.204Z,26.52
2023-02-18T21:40:17.497Z,25.20
2023-02-18T21:42:47.440Z,26.75
2023-02-18T21:45:20.333Z,26.65
2023-02-18T21:47:50.924Z,27.08
2023-02-18T21:50:20.140Z,27.05
2023-02-18T21:52:49.063Z,24.65
2023-02-18T21:55:18.294Z,25.17
2023-02-18T21:57:47.220Z,23.50
2023-02-18T22:00:21.047Z,25.35
2023-02-18T22:02:51.777Z,23.33
2023-02-18T22:05:21.459Z,23.38
2023-02-18T22:07:50.520Z,23.08
2023-02-18T22:10:20.084Z,23.02
2023-02-18T22:12:49.359Z,23.60
2023-02-18T22:15:18.663Z,22.75
2023-02-18T22:17:47.953Z,21.92
2023-02-18T22:20:19.575Z,22.25
2023-02-18T22:22:48.546Z,26.42
2023-02-18T22:25:17.579Z,24.73
2023-02-18T22:27:46.682Z,23.90
2023-02-18T22:30:18.835Z,22.65
2023-02-18T22:32:47.906Z,23.90
2023-02-18T22:35:18.600Z,23.15
2023-02-18T22:37:47.574Z,22.08
2023-02-18T22:40:16.712Z,22.67
2023-02-18T22:42:45.755Z,22.83
2023-02-18T22:45:14.686Z,25.63
2023-02-18T22:47:43.834Z,23.80
2023-02-18T22:50:12.806Z,24.83
2023-02-18T22:52:43.638Z,23.27
2023-02-18T22:55:12.680Z,23.02
2023-02-18T22:57:42.130Z,22.98
2023-02-18T23:00:13.458Z,23.15
2023-02-18T23:02:42.611Z,23.75
2023-02-18T23:05:11.569Z,24.88
2023-02-18T23:07:41.977Z,22.77
2023-02-18T23:10:11.013Z,24.63
2023-02-18T23:12:40.010Z,25.75
2023-02-18T23:15:11.034Z,24.25
2023-02-18T23:17:41.465Z,23.80
2023-02-18T23:20:11.407Z,23.75
2023-02-18T23:22:41.975Z,24.20
2023-02-18T23:25:12.581Z,26.50
2023-02-18T23:27:41.558Z,22.83
2023-02-18T23:30:12.819Z,23.23
2023-02-18T23:32:41.796Z,24.20
2023-02-18T23:35:10.732Z,24.13
2023-02-18T23:37:57.228Z,25.20
2023-02-18T23:40:27.613Z,24.20
2023-02-18T23:42:57.246Z,24.15
2023-02-18T23:45:26.428Z,25.52
2023-02-18T23:47:55.367Z,24.98
2023-02-18T23:50:24.645Z,25.05
2023-02-18T23:52:54.200Z,22.08
2023-02-18T23:55:23.244Z,23.73
2023-02-18T23:57:53.529Z,22.27
